sensor_id;sensor_type;location;lat;lon;timestamp;P1;durP1;ratioP1;P2;durP2;ratioP2
2041;SDS011;1026;51.460;7.252;2023-12-14T00:00:30;10.43;;;9.27;;
2041;SDS011;1026;51.460;7.252;2023-12-14T00:03:03;8.40;;;6.70;;
2041;SDS011;1026;51.460;7.252;2023-12-14T00:05:37;8.70;;;6.83;;
2041;SDS011;1026;51.460;7.252;2023-12-14T00:08:04;11.00;;;8.70;;
2041;SDS011;1026;51.460;7.252;2023-12-14T00:10:31;7.97;;;7.17;;
2041;SDS011;1026;51.460;7.252;2023-12-14T00:13:05;7.20;;;6.40;;
2041;SDS011;1026;51.460;7.252;2023-12-14T00:15:34;6.60;;;5.77;;
2041;SDS011;1026;51.460;7.252;2023-12-14T00:18:08;12.17;;;8.13;;
2041;SDS011;1026;51.460;7.252;2023-12-14T00:20:41;8.70;;;6.80;;
2041;SDS011;1026;51.460;7.252;2023-12-14T00:23:22;12.00;;;8.30;;
2041;SDS011;1026;51.460;7.252;2023-12-14T00:25:49;7.83;;;5.80;;
2041;SDS011;1026;51.460;7.252;2023-12-14T00:28:23;8.97;;;6.97;;
2041;SDS011;1026;51.460;7.252;2023-12-14T00:30:55;8.50;;;6.80;;
2041;SDS011;1026;51.460;7.252;2023-12-14T00:33:29;9.73;;;8.60;;
2041;SDS011;1026;51.460;7.252;2023-12-14T00:35:56;8.00;;;6.13;;
2041;SDS011;1026;51.460;7.252;2023-12-14T00:38:30;14.40;;;9.23;;
2041;SDS011;1026;51.460;7.252;2023-12-14T00:41:04;7.80;;;5.60;;
2041;SDS011;1026;51.460;7.252;2023-12-14T00:43:38;11.60;;;9.03;;
2041;SDS011;1026;51.460;7.252;2023-12-14T00:46:05;13.80;;;10.00;;
2041;SDS011;1026;51.460;7.252;2023-12-14T00:48:39;13.63;;;9.47;;
2041;SDS011;1026;51.460;7.252;2023-12-14T00:51:06;14.43;;;10.07;;
2041;SDS011;1026;51.460;7.252;2023-12-14T00:53:33;11.73;;;9.37;;
2041;SDS011;1026;51.460;7.252;2023-12-14T00:56:07;8.50;;;7.23;;
2041;SDS011;1026;51.460;7.252;2023-12-14T00:58:35;9.37;;;7.20;;
2041;SDS011;1026;51.460;7.252;2023-12-14T01:01:09;9.50;;;7.60;;
2041;SDS011;1026;51.460;7.252;2023-12-14T01:03:43;9.63;;;7.13;;
2041;SDS011;1026;51.460;7.252;2023-12-14T01:06:10;9.67;;;7.73;;
2041;SDS011;1026;51.460;7.252;2023-12-14T01:08:37;9.20;;;6.10;;
2041;SDS011;1026;51.460;7.252;2023-12-14T01:11:11;7.20;;;5.30;;
2041;SDS011;1026;51.460;7.252;2023-12-14T01:13:45;8.57;;;7.70;;
2041;SDS011;1026;51.460;7.252;2023-12-14T01:16:12;8.33;;;7.53;;
2041;SDS011;1026;51.460;7.252;2023-12-14T01:18:39;7.13;;;6.43;;
2041;SDS011;1026;51.460;7.252;2023-12-14T01:21:19;8.83;;;6.60;;
2041;SDS011;1026;51.460;7.252;2023-12-14T01:24:00;7.93;;;5.87;;
2041;SDS011;1026;51.460;7.252;2023-12-14T01:26:40;7.27;;;5.63;;
2041;SDS011;1026;51.460;7.252;2023-12-14T01:29:08;6.43;;;5.30;;
2041;SDS011;1026;51.460;7.252;2023-12-14T01:31:41;6.43;;;5.13;;
2041;SDS011;1026;51.460;7.252;2023-12-14T01:34:08;6.03;;;5.50;;
2041;SDS011;1026;51.460;7.252;2023-12-14T01:36:45;6.43;;;5.13;;
2041;SDS011;1026;51.460;7.252;2023-12-14T01:39:12;6.10;;;5.40;;
2041;SDS011;1026;51.460;7.252;2023-12-14T01:41:39;5.17;;;4.40;;
2041;SDS011;1026;51.460;7.252;2023-12-14T01:44:13;4.43;;;4.03;;
2041;SDS011;1026;51.460;7.252;2023-12-14T01:46:47;5.53;;;5.03;;
2041;SDS011;1026;51.460;7.252;2023-12-14T01:49:14;6.63;;;4.53;;
2041;SDS011;1026;51.460;7.252;2023-12-14T01:51:48;4.73;;;4.23;;
2041;SDS011;1026;51.460;7.252;2023-12-14T01:54:14;5.57;;;4.97;;
2041;SDS011;1026;51.460;7.252;2023-12-14T01:56:42;4.37;;;3.93;;
2041;SDS011;1026;51.460;7.252;2023-12-14T01:59:15;4.73;;;4.23;;
2041;SDS011;1026;51.460;7.252;2023-12-14T02:01:52;4.80;;;4.30;;
2041;SDS011;1026;51.460;7.252;2023-12-14T02:04:23;4.30;;;3.90;;
2041;SDS011;1026;51.460;7.252;2023-12-14T02:06:58;5.07;;;4.60;;
2041;SDS011;1026;51.460;7.252;2023-12-14T02:09:33;7.27;;;5.00;;
2041;SDS011;1026;51.460;7.252;2023-12-14T02:12:00;4.60;;;4.20;;
2041;SDS011;1026;51.460;7.252;2023-12-14T02:14:34;5.30;;;4.57;;
2041;SDS011;1026;51.460;7.252;2023-12-14T02:17:01;6.00;;;5.40;;
2041;SDS011;1026;51.460;7.252;2023-12-14T02:19:28;8.23;;;5.30;;
2041;SDS011;1026;51.460;7.252;2023-12-14T02:22:02;5.23;;;4.60;;
2041;SDS011;1026;51.460;7.252;2023-12-14T02:24:42;6.57;;;5.97;;
2041;SDS011;1026;51.460;7.252;2023-12-14T02:27:16;6.53;;;5.40;;
2041;SDS011;1026;51.460;7.252;2023-12-14T02:29:43;5.53;;;4.97;;
2041;SDS011;1026;51.460;7.252;2023-12-14T02:32:16;9.60;;;7.60;;
2041;SDS011;1026;51.460;7.252;2023-12-14T02:34:43;9.33;;;7.47;;
2041;SDS011;1026;51.460;7.252;2023-12-14T02:37:10;7.77;;;6.10;;
2041;SDS011;1026;51.460;7.252;2023-12-14T02:39:44;6.77;;;5.90;;
2041;SDS011;1026;51.460;7.252;2023-12-14T02:42:13;6.10;;;4.57;;
2041;SDS011;1026;51.460;7.252;2023-12-14T02:44:47;6.97;;;5.37;;
2041;SDS011;1026;51.460;7.252;2023-12-14T02:47:14;7.67;;;6.20;;
2041;SDS011;1026;51.460;7.252;2023-12-14T02:49:48;7.63;;;6.20;;
2041;SDS011;1026;51.460;7.252;2023-12-14T02:52:15;7.13;;;6.43;;
2041;SDS011;1026;51.460;7.252;2023-12-14T02:54:48;7.20;;;6.20;;
2041;SDS011;1026;51.460;7.252;2023-12-14T02:57:14;8.20;;;6.70;;
2041;SDS011;1026;51.460;7.252;2023-12-14T02:59:41;8.00;;;6.23;;
2041;SDS011;1026;51.460;7.252;2023-12-14T03:02:15;6.20;;;5.50;;
2041;SDS011;1026;51.460;7.252;2023-12-14T03:04:42;10.03;;;5.97;;
2041;SDS011;1026;51.460;7.252;2023-12-14T03:07:15;8.13;;;5.50;;
2041;SDS011;1026;51.460;7.252;2023-12-14T03:09:42;8.77;;;6.20;;
2041;SDS011;1026;51.460;7.252;2023-12-14T03:12:11;6.07;;;5.30;;
2041;SDS011;1026;51.460;7.252;2023-12-14T03:14:44;9.57;;;5.97;;
2041;SDS011;1026;51.460;7.252;2023-12-14T03:17:11;7.60;;;6.80;;
2041;SDS011;1026;51.460;7.252;2023-12-14T03:19:46;5.90;;;4.83;;
2041;SDS011;1026;51.460;7.252;2023-12-14T03:22:25;7.17;;;6.27;;
2041;SDS011;1026;51.460;7.252;2023-12-14T03:24:59;5.60;;;5.10;;
2041;SDS011;1026;51.460;7.252;2023-12-14T03:27:26;9.50;;;6.83;;
2041;SDS011;1026;51.460;7.252;2023-12-14T03:30:00;11.20;;;8.97;;
2041;SDS011;1026;51.460;7.252;2023-12-14T03:32:34;7.90;;;5.70;;
2041;SDS011;1026;51.460;7.252;2023-12-14T03:35:02;8.10;;;6.30;;
2041;SDS011;1026;51.460;7.252;2023-12-14T03:37:36;7.07;;;5.90;;
2041;SDS011;1026;51.460;7.252;2023-12-14T03:40:04;7.03;;;4.70;;
2041;SDS011;1026;51.460;7.252;2023-12-14T03:42:31;7.60;;;6.80;;
2041;SDS011;1026;51.460;7.252;2023-12-14T03:45:05;9.77;;;6.80;;
2041;SDS011;1026;51.460;7.252;2023-12-14T03:47:33;7.93;;;6.23;;
2041;SDS011;1026;51.460;7.252;2023-12-14T03:50:06;8.17;;;6.33;;
2041;SDS011;1026;51.460;7.252;2023-12-14T03:52:35;8.43;;;7.63;;
2041;SDS011;1026;51.460;7.252;2023-12-14T03:55:03;7.93;;;6.33;;
2041;SDS011;1026;51.460;7.252;2023-12-14T03:57:37;10.67;;;6.90;;
2041;SDS011;1026;51.460;7.252;2023-12-14T04:00:11;7.80;;;6.33;;
2041;SDS011;1026;51.460;7.252;2023-12-14T04:02:45;7.70;;;6.53;;
2041;SDS011;1026;51.460;7.252;2023-12-14T04:05:12;6.40;;;5.70;;
2041;SDS011;1026;51.460;7.252;2023-12-14T04:07:45;6.30;;;5.30;;
2041;SDS011;1026;51.460;7.252;2023-12-14T04:10:12;6.40;;;5.20;;
2041;SDS011;1026;51.460;7.252;2023-12-14T04:12:46;10.30;;;6.17;;
2041;SDS011;1026;51.460;7.252;2023-12-14T04:15:13;7.63;;;5.50;;
2041;SDS011;1026;51.460;7.252;2023-12-14T04:17:40;9.10;;;5.63;;
2041;SDS011;1026;51.460;7.252;2023-12-14T04:20:13;6.57;;;5.17;;
2041;SDS011;1026;51.460;7.252;2023-12-14T04:22:48;6.23;;;5.37;;
2041;SDS011;1026;51.460;7.252;2023-12-14T04:25:21;7.30;;;5.60;;
2041;SDS011;1026;51.460;7.252;2023-12-14T04:27:55;6.70;;;5.00;;
2041;SDS011;1026;51.460;7.252;2023-12-14T04:30:22;7.70;;;5.10;;
2041;SDS011;1026;51.460;7.252;2023-12-14T04:32:49;5.20;;;4.17;;
2041;SDS011;1026;51.460;7.252;2023-12-14T04:35:23;5.40;;;4.43;;
2041;SDS011;1026;51.460;7.252;2023-12-14T04:37:57;5.57;;;5.00;;
2041;SDS011;1026;51.460;7.252;2023-12-14T04:40:24;6.70;;;5.00;;
2041;SDS011;1026;51.460;7.252;2023-12-14T04:42:57;5.70;;;4.60;;
2041;SDS011;1026;51.460;7.252;2023-12-14T04:45:24;6.90;;;5.43;;
2041;SDS011;1026;51.460;7.252;2023-12-14T04:47:51;5.30;;;4.57;;
2041;SDS011;1026;51.460;7.252;2023-12-14T04:50:25;5.60;;;4.87;;
2041;SDS011;1026;51.460;7.252;2023-12-14T04:52:59;6.57;;;5.43;;
2041;SDS011;1026;51.460;7.252;2023-12-14T04:55:33;5.40;;;4.57;;
2041;SDS011;1026;51.460;7.252;2023-12-14T04:58:00;5.67;;;4.93;;
2041;SDS011;1026;51.460;7.252;2023-12-14T05:00:27;5.00;;;4.50;;
2041;SDS011;1026;51.460;7.252;2023-12-14T05:03:01;5.83;;;4.97;;
2041;SDS011;1026;51.460;7.252;2023-12-14T05:05:28;5.60;;;4.60;;
2041;SDS011;1026;51.460;7.252;2023-12-14T05:08:02;5.90;;;5.23;;
2041;SDS011;1026;51.460;7.252;2023-12-14T05:10:29;5.87;;;4.77;;
2041;SDS011;1026;51.460;7.252;2023-12-14T05:13:03;4.17;;;3.77;;
2041;SDS011;1026;51.460;7.252;2023-12-14T05:15:30;4.57;;;4.17;;
2041;SDS011;1026;51.460;7.252;2023-12-14T05:17:57;4.80;;;3.80;;
2041;SDS011;1026;51.460;7.252;2023-12-14T05:20:37;5.07;;;4.57;;
2041;SDS011;1026;51.460;7.252;2023-12-14T05:23:10;5.50;;;4.27;;
2041;SDS011;1026;51.460;7.252;2023-12-14T05:25:43;7.77;;;5.43;;
2041;SDS011;1026;51.460;7.252;2023-12-14T05:28:17;6.23;;;5.50;;
2041;SDS011;1026;51.460;7.252;2023-12-14T05:30:50;7.57;;;6.30;;
2041;SDS011;1026;51.460;7.252;2023-12-14T05:33:23;6.60;;;5.17;;
2041;SDS011;1026;51.460;7.252;2023-12-14T05:35:56;5.53;;;4.10;;
2041;SDS011;1026;51.460;7.252;2023-12-14T05:38:23;6.27;;;5.13;;
2041;SDS011;1026;51.460;7.252;2023-12-14T05:40:57;6.80;;;4.60;;
2041;SDS011;1026;51.460;7.252;2023-12-14T05:43:24;5.77;;;4.73;;
2041;SDS011;1026;51.460;7.252;2023-12-14T05:45:51;6.50;;;5.33;;
2041;SDS011;1026;51.460;7.252;2023-12-14T05:48:24;6.70;;;5.77;;
2041;SDS011;1026;51.460;7.252;2023-12-14T05:50:53;8.00;;;5.53;;
2041;SDS011;1026;51.460;7.252;2023-12-14T05:53:20;7.10;;;5.40;;
2041;SDS011;1026;51.460;7.252;2023-12-14T05:55:54;5.37;;;4.50;;
2041;SDS011;1026;51.460;7.252;2023-12-14T05:58:21;6.07;;;5.30;;
2041;SDS011;1026;51.460;7.252;2023-12-14T06:00:48;5.33;;;4.33;;
2041;SDS011;1026;51.460;7.252;2023-12-14T06:03:22;6.23;;;5.43;;
2041;SDS011;1026;51.460;7.252;2023-12-14T06:05:56;7.13;;;5.03;;
2041;SDS011;1026;51.460;7.252;2023-12-14T06:08:23;7.03;;;5.10;;
2041;SDS011;1026;51.460;7.252;2023-12-14T06:10:57;5.47;;;4.93;;
2041;SDS011;1026;51.460;7.252;2023-12-14T06:13:24;8.00;;;6.30;;
2041;SDS011;1026;51.460;7.252;2023-12-14T06:15:51;6.03;;;5.20;;
2041;SDS011;1026;51.460;7.252;2023-12-14T06:18:24;5.90;;;5.20;;
2041;SDS011;1026;51.460;7.252;2023-12-14T06:20:58;6.67;;;4.73;;
2041;SDS011;1026;51.460;7.252;2023-12-14T06:23:38;9.73;;;8.13;;
2041;SDS011;1026;51.460;7.252;2023-12-14T06:26:16;7.30;;;5.90;;
2041;SDS011;1026;51.460;7.252;2023-12-14T06:28:43;8.20;;;6.27;;
2041;SDS011;1026;51.460;7.252;2023-12-14T06:31:14;8.07;;;5.93;;
2041;SDS011;1026;51.460;7.252;2023-12-14T06:33:48;10.40;;;7.60;;
2041;SDS011;1026;51.460;7.252;2023-12-14T06:36:26;6.87;;;5.40;;
2041;SDS011;1026;51.460;7.252;2023-12-14T06:39:02;10.07;;;8.73;;
2041;SDS011;1026;51.460;7.252;2023-12-14T06:41:29;7.20;;;5.50;;
2041;SDS011;1026;51.460;7.252;2023-12-14T06:43:57;7.50;;;6.63;;
2041;SDS011;1026;51.460;7.252;2023-12-14T06:46:30;8.27;;;7.30;;
2041;SDS011;1026;51.460;7.252;2023-12-14T06:49:03;9.20;;;6.40;;
2041;SDS011;1026;51.460;7.252;2023-12-14T06:51:30;8.10;;;6.80;;
2041;SDS011;1026;51.460;7.252;2023-12-14T06:53:58;9.50;;;6.97;;
2041;SDS011;1026;51.460;7.252;2023-12-14T06:56:31;11.83;;;8.40;;
2041;SDS011;1026;51.460;7.252;2023-12-14T06:59:05;8.90;;;5.87;;
2041;SDS011;1026;51.460;7.252;2023-12-14T07:01:32;7.03;;;6.33;;
2041;SDS011;1026;51.460;7.252;2023-12-14T07:04:00;6.00;;;5.40;;
2041;SDS011;1026;51.460;7.252;2023-12-14T07:06:35;10.97;;;6.83;;
2041;SDS011;1026;51.460;7.252;2023-12-14T07:09:02;7.70;;;6.67;;
2041;SDS011;1026;51.460;7.252;2023-12-14T07:11:36;9.00;;;6.03;;
2041;SDS011;1026;51.460;7.252;2023-12-14T07:14:10;7.07;;;5.90;;
2041;SDS011;1026;51.460;7.252;2023-12-14T07:16:37;6.80;;;5.70;;
2041;SDS011;1026;51.460;7.252;2023-12-14T07:19:11;7.33;;;6.47;;
2041;SDS011;1026;51.460;7.252;2023-12-14T07:21:45;9.07;;;7.33;;
2041;SDS011;1026;51.460;7.252;2023-12-14T07:24:25;9.17;;;7.50;;
2041;SDS011;1026;51.460;7.252;2023-12-14T07:26:52;9.53;;;7.20;;
2041;SDS011;1026;51.460;7.252;2023-12-14T07:29:19;9.07;;;6.47;;
2041;SDS011;1026;51.460;7.252;2023-12-14T07:31:53;8.13;;;6.60;;
2041;SDS011;1026;51.460;7.252;2023-12-14T07:34:20;10.90;;;8.10;;
2041;SDS011;1026;51.460;7.252;2023-12-14T07:36:47;7.87;;;6.50;;
2041;SDS011;1026;51.460;7.252;2023-12-14T07:39:21;14.23;;;9.53;;
2041;SDS011;1026;51.460;7.252;2023-12-14T07:41:48;8.60;;;7.17;;
2041;SDS011;1026;51.460;7.252;2023-12-14T07:44:22;8.03;;;7.23;;
2041;SDS011;1026;51.460;7.252;2023-12-14T07:46:51;8.80;;;7.13;;
2041;SDS011;1026;51.460;7.252;2023-12-14T07:49:25;8.70;;;6.90;;
2041;SDS011;1026;51.460;7.252;2023-12-14T07:51:52;9.53;;;7.50;;
2041;SDS011;1026;51.460;7.252;2023-12-14T07:54:19;7.30;;;6.27;;
2041;SDS011;1026;51.460;7.252;2023-12-14T07:56:53;6.33;;;5.70;;
2041;SDS011;1026;51.460;7.252;2023-12-14T07:59:26;12.63;;;6.87;;
2041;SDS011;1026;51.460;7.252;2023-12-14T08:02:00;7.00;;;6.00;;
2041;SDS011;1026;51.460;7.252;2023-12-14T08:04:27;7.50;;;6.13;;
2041;SDS011;1026;51.460;7.252;2023-12-14T08:06:55;5.90;;;5.30;;
2041;SDS011;1026;51.460;7.252;2023-12-14T08:09:29;7.93;;;7.03;;
2041;SDS011;1026;51.460;7.252;2023-12-14T08:12:03;7.43;;;6.07;;
2041;SDS011;1026;51.460;7.252;2023-12-14T08:14:34;9.20;;;8.20;;
2041;SDS011;1026;51.460;7.252;2023-12-14T08:17:10;9.63;;;8.23;;
2041;SDS011;1026;51.460;7.252;2023-12-14T08:19:37;8.37;;;5.77;;
2041;SDS011;1026;51.460;7.252;2023-12-14T08:22:11;11.93;;;8.50;;
2041;SDS011;1026;51.460;7.252;2023-12-14T08:24:45;10.10;;;7.80;;
2041;SDS011;1026;51.460;7.252;2023-12-14T08:27:12;9.70;;;7.40;;
2041;SDS011;1026;51.460;7.252;2023-12-14T08:29:39;7.77;;;6.13;;
2041;SDS011;1026;51.460;7.252;2023-12-14T08:32:13;11.07;;;8.50;;
2041;SDS011;1026;51.460;7.252;2023-12-14T08:34:40;10.77;;;8.13;;
2041;SDS011;1026;51.460;7.252;2023-12-14T08:37:07;7.87;;;6.17;;
2041;SDS011;1026;51.460;7.252;2023-12-14T08:39:41;6.60;;;5.90;;
2041;SDS011;1026;51.460;7.252;2023-12-14T08:42:08;6.97;;;5.57;;
2041;SDS011;1026;51.460;7.252;2023-12-14T08:44:44;8.83;;;6.97;;
2041;SDS011;1026;51.460;7.252;2023-12-14T08:47:18;8.53;;;7.27;;
2041;SDS011;1026;51.460;7.252;2023-12-14T08:49:46;6.93;;;6.20;;
2041;SDS011;1026;51.460;7.252;2023-12-14T08:52:13;6.70;;;5.53;;
2041;SDS011;1026;51.460;7.252;2023-12-14T08:54:47;8.53;;;5.93;;
2041;SDS011;1026;51.460;7.252;2023-12-14T08:57:14;8.17;;;6.87;;
2041;SDS011;1026;51.460;7.252;2023-12-14T08:59:48;7.77;;;6.10;;
2041;SDS011;1026;51.460;7.252;2023-12-14T09:02:15;8.20;;;6.57;;
2041;SDS011;1026;51.460;7.252;2023-12-14T09:04:42;9.43;;;8.20;;
2041;SDS011;1026;51.460;7.252;2023-12-14T09:07:15;8.87;;;7.97;;
2041;SDS011;1026;51.460;7.252;2023-12-14T09:09:48;15.60;;;11.30;;
2041;SDS011;1026;51.460;7.252;2023-12-14T09:12:15;10.43;;;8.10;;
2041;SDS011;1026;51.460;7.252;2023-12-14T09:14:42;12.20;;;9.47;;
2041;SDS011;1026;51.460;7.252;2023-12-14T09:17:16;12.90;;;7.87;;
2041;SDS011;1026;51.460;7.252;2023-12-14T09:19:43;7.73;;;6.37;;
2041;SDS011;1026;51.460;7.252;2023-12-14T09:22:10;8.37;;;6.67;;
2041;SDS011;1026;51.460;7.252;2023-12-14T09:24:58;10.87;;;6.90;;
2041;SDS011;1026;51.460;7.252;2023-12-14T09:27:25;15.13;;;11.00;;
2041;SDS011;1026;51.460;7.252;2023-12-14T09:29:59;9.47;;;7.27;;
2041;SDS011;1026;51.460;7.252;2023-12-14T09:32:26;9.00;;;7.23;;
2041;SDS011;1026;51.460;7.252;2023-12-14T09:34:53;9.23;;;6.50;;
2041;SDS011;1026;51.460;7.252;2023-12-14T09:37:29;7.90;;;6.33;;
2041;SDS011;1026;51.460;7.252;2023-12-14T09:39:57;13.00;;;9.60;;
2041;SDS011;1026;51.460;7.252;2023-12-14T09:42:24;11.13;;;8.60;;
2041;SDS011;1026;51.460;7.252;2023-12-14T09:44:57;15.10;;;9.87;;
2041;SDS011;1026;51.460;7.252;2023-12-14T09:47:24;11.03;;;9.00;;
2041;SDS011;1026;51.460;7.252;2023-12-14T09:49:59;18.40;;;11.83;;
2041;SDS011;1026;51.460;7.252;2023-12-14T09:52:27;18.23;;;12.50;;
2041;SDS011;1026;51.460;7.252;2023-12-14T09:54:54;7.37;;;5.80;;
2041;SDS011;1026;51.460;7.252;2023-12-14T09:57:27;11.60;;;8.30;;
2041;SDS011;1026;51.460;7.252;2023-12-14T09:59:55;9.70;;;8.03;;
2041;SDS011;1026;51.460;7.252;2023-12-14T10:02:28;8.90;;;7.40;;
2041;SDS011;1026;51.460;7.252;2023-12-14T10:04:56;10.20;;;8.37;;
2041;SDS011;1026;51.460;7.252;2023-12-14T10:07:23;11.03;;;9.33;;
2041;SDS011;1026;51.460;7.252;2023-12-14T10:10:10;10.27;;;8.60;;
2041;SDS011;1026;51.460;7.252;2023-12-14T10:12:52;10.90;;;7.57;;
2041;SDS011;1026;51.460;7.252;2023-12-14T10:15:26;11.97;;;9.00;;
2041;SDS011;1026;51.460;7.252;2023-12-14T10:17:53;10.57;;;9.47;;
2041;SDS011;1026;51.460;7.252;2023-12-14T10:20:22;9.70;;;8.27;;
2041;SDS011;1026;51.460;7.252;2023-12-14T10:22:56;10.87;;;9.10;;
2041;SDS011;1026;51.460;7.252;2023-12-14T10:25:36;10.20;;;8.13;;
2041;SDS011;1026;51.460;7.252;2023-12-14T10:28:13;10.63;;;8.43;;
2041;SDS011;1026;51.460;7.252;2023-12-14T10:30:40;14.83;;;7.90;;
2041;SDS011;1026;51.460;7.252;2023-12-14T10:33:14;15.33;;;10.07;;
2041;SDS011;1026;51.460;7.252;2023-12-14T10:35:43;10.33;;;8.20;;
2041;SDS011;1026;51.460;7.252;2023-12-14T10:38:18;13.00;;;9.57;;
2041;SDS011;1026;51.460;7.252;2023-12-14T10:40:46;13.50;;;10.40;;
2041;SDS011;1026;51.460;7.252;2023-12-14T10:43:14;12.50;;;9.80;;
2041;SDS011;1026;51.460;7.252;2023-12-14T10:46:09;13.63;;;8.90;;
2041;SDS011;1026;51.460;7.252;2023-12-14T10:48:44;13.30;;;9.80;;
2041;SDS011;1026;51.460;7.252;2023-12-14T10:51:20;13.00;;;8.87;;
2041;SDS011;1026;51.460;7.252;2023-12-14T10:53:50;13.70;;;9.90;;
2041;SDS011;1026;51.460;7.252;2023-12-14T10:56:24;12.27;;;8.87;;
2041;SDS011;1026;51.460;7.252;2023-12-14T10:58:54;16.17;;;11.43;;
2041;SDS011;1026;51.460;7.252;2023-12-14T11:01:23;9.40;;;7.47;;
2041;SDS011;1026;51.460;7.252;2023-12-14T11:03:58;10.87;;;8.23;;
2041;SDS011;1026;51.460;7.252;2023-12-14T11:06:34;9.10;;;8.10;;
2041;SDS011;1026;51.460;7.252;2023-12-14T11:09:10;13.30;;;9.80;;
2041;SDS011;1026;51.460;7.252;2023-12-14T11:11:55;10.53;;;8.23;;
2041;SDS011;1026;51.460;7.252;2023-12-14T11:14:31;14.10;;;9.17;;
2041;SDS011;1026;51.460;7.252;2023-12-14T11:17:05;12.10;;;8.27;;
2041;SDS011;1026;51.460;7.252;2023-12-14T11:19:39;11.10;;;8.07;;
2041;SDS011;1026;51.460;7.252;2023-12-14T11:22:12;11.30;;;8.77;;
2041;SDS011;1026;51.460;7.252;2023-12-14T11:25:10;12.47;;;8.20;;
2041;SDS011;1026;51.460;7.252;2023-12-14T11:27:49;10.30;;;8.73;;
2041;SDS011;1026;51.460;7.252;2023-12-14T11:30:24;12.50;;;9.27;;
2041;SDS011;1026;51.460;7.252;2023-12-14T11:32:51;12.87;;;9.60;;
2041;SDS011;1026;51.460;7.252;2023-12-14T11:35:26;12.53;;;9.93;;
2041;SDS011;1026;51.460;7.252;2023-12-14T11:37:54;13.60;;;9.87;;
2041;SDS011;1026;51.460;7.252;2023-12-14T11:40:30;9.80;;;7.10;;
2041;SDS011;1026;51.460;7.252;2023-12-14T11:42:58;12.60;;;9.73;;
2041;SDS011;1026;51.460;7.252;2023-12-14T11:45:26;13.13;;;9.17;;
2041;SDS011;1026;51.460;7.252;2023-12-14T11:47:59;17.77;;;12.10;;
2041;SDS011;1026;51.460;7.252;2023-12-14T11:50:28;9.10;;;7.10;;
2041;SDS011;1026;51.460;7.252;2023-12-14T11:52:56;10.13;;;7.30;;
2041;SDS011;1026;51.460;7.252;2023-12-14T11:55:31;9.67;;;7.23;;
2041;SDS011;1026;51.460;7.252;2023-12-14T11:57:58;9.33;;;7.87;;
2041;SDS011;1026;51.460;7.252;2023-12-14T12:00:33;12.90;;;9.10;;
2041;SDS011;1026;51.460;7.252;2023-12-14T12:03:17;11.17;;;8.40;;
2041;SDS011;1026;51.460;7.252;2023-12-14T12:05:49;9.53;;;7.40;;
2041;SDS011;1026;51.460;7.252;2023-12-14T12:08:23;11.17;;;7.90;;
2041;SDS011;1026;51.460;7.252;2023-12-14T12:10:51;9.53;;;7.00;;
2041;SDS011;1026;51.460;7.252;2023-12-14T12:13:24;8.80;;;6.47;;
2041;SDS011;1026;51.460;7.252;2023-12-14T12:15:58;10.63;;;7.13;;
2041;SDS011;1026;51.460;7.252;2023-12-14T12:18:25;11.63;;;7.97;;
2041;SDS011;1026;51.460;7.252;2023-12-14T12:21:03;9.30;;;6.40;;
2041;SDS011;1026;51.460;7.252;2023-12-14T12:23:36;10.70;;;7.20;;
2041;SDS011;1026;51.460;7.252;2023-12-14T12:26:10;11.10;;;7.20;;
2041;SDS011;1026;51.460;7.252;2023-12-14T12:28:37;8.77;;;6.87;;
2041;SDS011;1026;51.460;7.252;2023-12-14T12:31:10;10.20;;;7.37;;
2041;SDS011;1026;51.460;7.252;2023-12-14T12:33:38;8.83;;;6.67;;
2041;SDS011;1026;51.460;7.252;2023-12-14T12:36:05;9.27;;;6.97;;
2041;SDS011;1026;51.460;7.252;2023-12-14T12:38:39;9.70;;;7.20;;
2041;SDS011;1026;51.460;7.252;2023-12-14T12:41:07;9.60;;;7.70;;
2041;SDS011;1026;51.460;7.252;2023-12-14T12:43:41;8.73;;;6.83;;
2041;SDS011;1026;51.460;7.252;2023-12-14T12:46:08;10.80;;;7.30;;
2041;SDS011;1026;51.460;7.252;2023-12-14T12:48:41;12.87;;;8.73;;
2041;SDS011;1026;51.460;7.252;2023-12-14T12:51:15;10.00;;;7.53;;
2041;SDS011;1026;51.460;7.252;2023-12-14T12:53:42;8.80;;;6.30;;
2041;SDS011;1026;51.460;7.252;2023-12-14T12:56:12;9.30;;;6.50;;
2041;SDS011;1026;51.460;7.252;2023-12-14T12:58:45;10.67;;;7.33;;
2041;SDS011;1026;51.460;7.252;2023-12-14T13:01:12;9.30;;;6.57;;
2041;SDS011;1026;51.460;7.252;2023-12-14T13:03:40;9.90;;;7.27;;
2041;SDS011;1026;51.460;7.252;2023-12-14T13:06:13;11.83;;;8.17;;
2041;SDS011;1026;51.460;7.252;2023-12-14T13:08:41;10.40;;;7.30;;
2041;SDS011;1026;51.460;7.252;2023-12-14T13:11:15;10.50;;;7.40;;
2041;SDS011;1026;51.460;7.252;2023-12-14T13:13:43;10.67;;;7.20;;
2041;SDS011;1026;51.460;7.252;2023-12-14T13:16:17;8.47;;;7.27;;
2041;SDS011;1026;51.460;7.252;2023-12-14T13:18:44;9.67;;;7.00;;
2041;SDS011;1026;51.460;7.252;2023-12-14T13:21:25;7.00;;;6.10;;
2041;SDS011;1026;51.460;7.252;2023-12-14T13:24:07;6.70;;;6.03;;
2041;SDS011;1026;51.460;7.252;2023-12-14T13:26:40;8.67;;;6.40;;
2041;SDS011;1026;51.460;7.252;2023-12-14T13:29:07;9.87;;;7.17;;
2041;SDS011;1026;51.460;7.252;2023-12-14T13:31:34;11.30;;;8.80;;
2041;SDS011;1026;51.460;7.252;2023-12-14T13:34:09;11.17;;;7.80;;
2041;SDS011;1026;51.460;7.252;2023-12-14T13:36:43;11.40;;;7.23;;
2041;SDS011;1026;51.460;7.252;2023-12-14T13:39:09;8.63;;;6.50;;
2041;SDS011;1026;51.460;7.252;2023-12-14T13:41:45;12.13;;;7.33;;
2041;SDS011;1026;51.460;7.252;2023-12-14T13:44:16;10.00;;;7.47;;
2041;SDS011;1026;51.460;7.252;2023-12-14T13:46:43;9.77;;;6.77;;
2041;SDS011;1026;51.460;7.252;2023-12-14T13:49:18;12.10;;;8.73;;
2041;SDS011;1026;51.460;7.252;2023-12-14T13:51:52;9.00;;;6.67;;
2041;SDS011;1026;51.460;7.252;2023-12-14T13:54:20;8.10;;;5.83;;
2041;SDS011;1026;51.460;7.252;2023-12-14T13:56:47;8.83;;;6.13;;
2041;SDS011;1026;51.460;7.252;2023-12-14T13:59:20;10.70;;;9.20;;
2041;SDS011;1026;51.460;7.252;2023-12-14T14:01:48;8.30;;;6.57;;
2041;SDS011;1026;51.460;7.252;2023-12-14T14:04:18;9.00;;;6.53;;
2041;SDS011;1026;51.460;7.252;2023-12-14T14:06:53;12.70;;;8.37;;
2041;SDS011;1026;51.460;7.252;2023-12-14T14:09:27;11.07;;;7.73;;
2041;SDS011;1026;51.460;7.252;2023-12-14T14:11:54;7.37;;;6.57;;
2041;SDS011;1026;51.460;7.252;2023-12-14T14:14:22;8.30;;;6.90;;
2041;SDS011;1026;51.460;7.252;2023-12-14T14:16:55;8.20;;;7.37;;
2041;SDS011;1026;51.460;7.252;2023-12-14T14:19:23;9.43;;;7.70;;
2041;SDS011;1026;51.460;7.252;2023-12-14T14:22:03;7.63;;;6.83;;
2041;SDS011;1026;51.460;7.252;2023-12-14T14:24:46;9.87;;;7.80;;
2041;SDS011;1026;51.460;7.252;2023-12-14T14:27:19;11.67;;;8.23;;
2041;SDS011;1026;51.460;7.252;2023-12-14T14:29:53;10.40;;;7.47;;
2041;SDS011;1026;51.460;7.252;2023-12-14T14:32:22;7.90;;;6.13;;
2041;SDS011;1026;51.460;7.252;2023-12-14T14:34:50;6.60;;;5.93;;
2041;SDS011;1026;51.460;7.252;2023-12-14T14:37:24;10.27;;;6.70;;
2041;SDS011;1026;51.460;7.252;2023-12-14T14:39:58;6.57;;;5.80;;
2041;SDS011;1026;51.460;7.252;2023-12-14T14:42:25;7.30;;;5.57;;
2041;SDS011;1026;51.460;7.252;2023-12-14T14:44:59;7.60;;;5.37;;
2041;SDS011;1026;51.460;7.252;2023-12-14T14:47:26;8.97;;;6.13;;
2041;SDS011;1026;51.460;7.252;2023-12-14T14:49:54;7.60;;;5.93;;
2041;SDS011;1026;51.460;7.252;2023-12-14T14:52:33;9.83;;;5.90;;
2041;SDS011;1026;51.460;7.252;2023-12-14T14:55:01;7.57;;;6.00;;
2041;SDS011;1026;51.460;7.252;2023-12-14T14:57:35;7.47;;;5.73;;
2041;SDS011;1026;51.460;7.252;2023-12-14T15:00:08;8.93;;;5.77;;
2041;SDS011;1026;51.460;7.252;2023-12-14T15:02:36;8.93;;;6.93;;
2041;SDS011;1026;51.460;7.252;2023-12-14T15:05:10;7.83;;;5.60;;
2041;SDS011;1026;51.460;7.252;2023-12-14T15:07:37;7.20;;;5.70;;
2041;SDS011;1026;51.460;7.252;2023-12-14T15:10:11;9.30;;;6.60;;
2041;SDS011;1026;51.460;7.252;2023-12-14T15:12:38;9.33;;;6.20;;
2041;SDS011;1026;51.460;7.252;2023-12-14T15:15:05;11.37;;;8.67;;
2041;SDS011;1026;51.460;7.252;2023-12-14T15:17:40;7.73;;;5.90;;
2041;SDS011;1026;51.460;7.252;2023-12-14T15:20:07;10.73;;;8.27;;
2041;SDS011;1026;51.460;7.252;2023-12-14T15:22:48;15.23;;;10.70;;
2041;SDS011;1026;51.460;7.252;2023-12-14T15:25:22;13.63;;;8.37;;
2041;SDS011;1026;51.460;7.252;2023-12-14T15:28:02;13.77;;;8.10;;
2041;SDS011;1026;51.460;7.252;2023-12-14T15:30:29;9.47;;;6.53;;
2041;SDS011;1026;51.460;7.252;2023-12-14T15:33:02;7.73;;;6.87;;
2041;SDS011;1026;51.460;7.252;2023-12-14T15:35:35;8.83;;;6.90;;